Time;durP1;ratioP1;P1;durP2;ratioP2;P2;SDS_P1;SDS_P2;PMS_P1;PMS_P2;Temp;Humidity;BMP_temperature;BMP_pressure;BME280_temperature;BME280_humidity;BME280_pressure;Samples;Min_cycle;Max_cycle;Signal;HPM_P1;HPM_P2
2022/07/07 00:03:16;;;;;;;2.10;1.23;;;28.80;57.80;;;;;;11013076;32;20034;-69
2022/07/07 00:09:18;;;;;;;7.47;1.83;;;28.80;57.90;;;;;;11012931;32;20487;-68
2022/07/07 00:15:26;;;;;;;1.80;1.27;;;28.80;57.80;;;;;;11013837;32;20026;-78
2022/07/07 00:21:28;;;;;;;1.92;1.00;;;28.70;57.90;;;;;;11010363;32;20073;-78
2022/07/07 00:27:30;;;;;;;2.55;1.77;;;28.80;58.80;;;;;;11016935;32;20018;-78
2022/07/07 00:33:33;;;;;;;3.92;1.98;;;28.80;58.70;;;;;;11016954;32;20018;-77
2022/07/07 00:39:44;;;;;;;3.42;1.35;;;28.80;58.90;;;;;;11016652;32;20342;-78
2022/07/07 00:45:48;;;;;;;1.98;1.42;;;28.60;59.90;;;;;;11016768;32;20056;-78
2022/07/07 00:51:51;;;;;;;3.10;2.03;;;28.70;59.80;;;;;;11022842;32;20045;-78
2022/07/07 00:57:53;;;;;;;2.40;1.35;;;28.70;59.70;;;;;;11009788;32;20010;-78
2022/07/07 01:03:55;;;;;;;1.50;1.23;;;28.60;59.70;;;;;;11023121;32;20044;-78
2022/07/07 01:10:04;;;;;;;1.85;1.00;;;28.60;59.70;;;;;;11022872;32;20057;-77
2022/07/07 01:16:09;;;;;;;1.12;1.02;;;28.60;59.60;;;;;;11022825;32;20041;-78
2022/07/07 01:22:13;;;;;;;0.52;0.52;;;28.60;59.60;;;;;;11022468;32;20057;-78
2022/07/07 01:28:15;;;;;;;1.27;0.75;;;28.50;59.90;;;;;;11022291;32;20022;-76
2022/07/07 01:34:19;;;;;;;1.33;0.93;;;28.60;59.90;;;;;;11021691;32;20406;-69
2022/07/07 01:40:21;;;;;;;0.95;0.82;;;28.60;59.90;;;;;;11018727;32;20030;-69
2022/07/07 01:46:23;;;;;;;2.97;1.00;;;28.60;59.80;;;;;;11018284;32;20018;-69
2022/07/07 01:52:25;;;;;;;1.35;0.90;;;28.60;59.90;;;;;;11007845;32;20044;-69
2022/07/07 01:58:53;;;;;;;2.95;1.30;;;28.50;60.10;;;;;;11007030;32;20026;-69
2022/07/07 02:04:55;;;;;;;;;;;28.30;60.00;;;;;;10813826;32;20294;-69
2022/07/07 02:11:12;;;;;;;1.50;1.02;;;28.40;59.90;;;;;;10824551;33;19927;-69
2022/07/07 02:17:14;;;;;;;1.00;0.80;;;28.30;60.40;;;;;;10824568;33;20046;-69
2022/07/07 02:23:17;;;;;;;0.60;0.60;;;28.30;60.30;;;;;;10828394;32;20057;-69
2022/07/07 02:29:19;;;;;;;0.98;0.85;;;28.30;60.10;;;;;;10824430;33;20050;-68
2022/07/07 02:35:21;;;;;;;1.25;1.00;;;28.10;60.40;;;;;;10828779;32;20027;-68
2022/07/07 02:41:25;;;;;;;1.33;1.15;;;28.00;60.70;;;;;;10960769;32;20383;-68
2022/07/07 02:47:27;;;;;;;1.95;1.10;;;27.90;60.90;;;;;;11019424;32;20021;-68
2022/07/07 02:53:29;;;;;;;1.42;1.08;;;27.90;61.20;;;;;;11019311;32;20345;-69
2022/07/07 02:59:32;;;;;;;2.12;1.00;;;27.80;61.80;;;;;;11018954;32;20394;-67
2022/07/07 03:05:34;;;;;;;2.60;1.02;;;27.80;62.40;;;;;;11018821;32;20046;-68
2022/07/07 03:11:36;;;;;;;1.40;1.02;;;27.60;62.70;;;;;;11016342;32;20044;-68
2022/07/07 03:17:43;;;;;;;2.67;1.55;;;27.50;63.50;;;;;;11015392;32;20053;-68
2022/07/07 03:23:45;;;;;;;2.45;1.55;;;27.40;64.00;;;;;;11013923;32;20383;-68
2022/07/07 03:29:47;;;;;;;1.33;1.12;;;27.30;64.20;;;;;;11017886;32;20327;-68
2022/07/07 03:35:49;;;;;;;2.58;1.65;;;27.20;64.10;;;;;;11013711;32;20018;-68
2022/07/07 03:41:51;;;;;;;2.85;1.50;;;27.00;64.10;;;;;;11017328;32;20432;-68
2022/07/07 03:47:53;;;;;;;1.95;1.45;;;26.90;64.30;;;;;;11017731;32;20413;-68
2022/07/07 03:53:55;;;;;;;1.52;1.37;;;26.80;65.20;;;;;;11017649;32;20391;-67
2022/07/07 03:59:58;;;;;;;1.55;1.40;;;26.80;65.40;;;;;;11017332;32;20318;-68
2022/07/07 04:06:00;;;;;;;3.85;1.25;;;26.70;65.10;;;;;;11017182;32;20061;-68
2022/07/07 04:12:03;;;;;;;1.50;1.40;;;26.70;65.30;;;;;;11017303;32;20010;-68
2022/07/07 04:18:05;;;;;;;1.45;1.20;;;26.70;65.90;;;;;;11003620;32;20045;-68
2022/07/07 04:24:07;;;;;;;2.35;1.62;;;26.60;66.60;;;;;;11018610;32;20022;-67
2022/07/07 04:30:10;;;;;;;2.33;1.50;;;26.60;67.20;;;;;;11007723;27;20072;-67
2022/07/07 04:36:32;;;;;;;1.48;1.05;;;26.60;67.30;;;;;;10972419;32;20327;-67
2022/07/07 04:42:35;;;;;;;1.77;1.20;;;26.60;67.80;;;;;;10982038;32;20035;-69
2022/07/07 04:48:37;;;;;;;1.70;1.02;;;26.60;68.40;;;;;;10985547;32;20023;-67
2022/07/07 04:54:39;;;;;;;1.37;1.15;;;26.40;68.80;;;;;;10986101;32;20077;-68
2022/07/07 05:00:41;;;;;;;2.95;1.50;;;26.50;68.90;;;;;;10984458;32;20026;-69
2022/07/07 05:07:07;;;;;;;3.95;1.27;;;26.60;67.60;;;;;;10982460;32;20367;-68
2022/07/07 05:13:09;;;;;;;2.58;1.33;;;26.40;68.40;;;;;;10984504;32;20023;-68
2022/07/07 05:19:11;;;;;;;2.33;1.58;;;26.30;68.70;;;;;;10984424;32;20432;-69
2022/07/07 05:25:13;;;;;;;1.80;1.30;;;26.30;68.80;;;;;;10984185;32;20022;-69
2022/07/07 05:31:16;;;;;;;1.95;1.25;;;26.30;69.20;;;;;;10983686;32;20053;-69
2022/07/07 05:37:19;;;;;;;1.35;1.23;;;26.40;69.60;;;;;;10982903;32;20054;-69
2022/07/07 05:43:21;;;;;;;1.90;1.10;;;26.60;69.10;;;;;;10983024;32;20030;-69
2022/07/07 05:49:23;;;;;;;1.83;1.17;;;26.60;69.00;;;;;;10983402;32;20045;-67
2022/07/07 05:55:36;;;;;;;1.45;1.23;;;26.80;69.00;;;;;;10983049;32;20049;-69
2022/07/07 06:02:05;;;;;;;1.12;1.00;;;26.80;69.00;;;;;;10978505;32;20311;-69
2022/07/07 06:08:08;;;;;;;1.55;1.23;;;26.70;68.90;;;;;;10982447;32;20059;-69
2022/07/07 06:14:10;;;;;;;1.52;1.27;;;26.60;68.90;;;;;;10978101;32;20018;-69
2022/07/07 06:20:12;;;;;;;0.93;0.88;;;26.60;68.70;;;;;;10951697;32;20034;-69
2022/07/07 06:26:32;;;;;;;1.90;1.10;;;26.60;68.40;;;;;;10977692;32;20022;-69
2022/07/07 06:32:53;;;;;;;0.98;0.80;;;26.70;68.20;;;;;;10977204;32;20027;-69
2022/07/07 06:38:55;;;;;;;1.52;1.15;;;26.70;67.90;;;;;;10981469;32;20026;-69
2022/07/07 06:44:57;;;;;;;3.83;1.62;;;26.50;68.20;;;;;;10952563;32;20363;-67
2022/07/07 06:51:00;;;;;;;4.00;1.75;;;26.30;68.90;;;;;;10980874;32;20019;-68
2022/07/07 06:57:02;;;;;;;1.55;1.20;;;26.70;68.60;;;;;;10977423;32;20022;-75
2022/07/07 07:03:24;;;;;;;1.42;1.33;;;26.90;68.20;;;;;;10980131;32;20026;-74
2022/07/07 07:09:26;;;;;;;1.75;1.15;;;27.20;67.30;;;;;;10980071;32;20023;-74
2022/07/07 07:15:28;;;;;;;1.92;1.75;;;27.50;66.70;;;;;;10980170;32;20419;-75
2022/07/07 07:21:30;;;;;;;1.45;1.20;;;27.70;65.70;;;;;;10979973;32;20049;-74
2022/07/07 07:27:34;;;;;;;1.85;1.40;;;27.50;66.10;;;;;;10979930;32;20045;-75
2022/07/07 07:33:38;;;;;;;2.33;1.30;;;27.50;65.50;;;;;;10979879;32;20049;-73
2022/07/07 07:39:40;;;;;;;1.83;1.00;;;27.70;65.60;;;;;;10979740;32;20023;-75
2022/07/07 07:45:43;;;;;;;3.75;1.65;;;27.80;65.00;;;;;;10975432;32;20026;-75
2022/07/07 07:51:46;;;;;;;6.47;1.23;;;28.00;64.50;;;;;;10966040;32;20026;-74
2022/07/07 07:57:49;;;;;;;1.55;1.33;;;28.30;63.60;;;;;;10981098;32;20026;-75
2022/07/07 08:03:54;;;;;;;1.27;0.90;;;28.10;63.90;;;;;;10986073;32;20023;-73
2022/07/07 08:10:02;;;;;;;2.58;1.80;;;28.30;63.50;;;;;;10986825;32;20346;-74
2022/07/07 08:16:04;;;;;;;3.10;1.65;;;28.50;63.30;;;;;;10986624;32;20045;-76
2022/07/07 08:22:07;;;;;;;2.25;1.95;;;28.50;63.40;;;;;;10986639;32;20383;-75
2022/07/07 08:28:10;;;;;;;3.15;2.35;;;28.60;63.00;;;;;;10986326;32;20049;-75
2022/07/07 08:34:12;;;;;;;1.73;1.48;;;28.70;63.20;;;;;;10986507;32;20027;-76
2022/07/07 08:40:14;;;;;;;2.45;1.60;;;28.70;62.60;;;;;;10985990;32;20042;-68
2022/07/07 08:46:17;;;;;;;1.30;1.20;;;28.80;62.10;;;;;;10983062;32;20061;-68
2022/07/07 08:52:19;;;;;;;3.15;1.52;;;28.90;61.50;;;;;;10984665;32;20050;-70
2022/07/07 08:58:22;;;;;;;1.77;1.15;;;29.10;61.20;;;;;;10982687;32;20030;-68
2022/07/07 09:04:24;;;;;;;2.05;1.17;;;29.30;60.30;;;;;;10967675;32;20049;-68
2022/07/07 09:10:44;;;;;;;1.50;1.10;;;29.40;60.00;;;;;;10983851;32;20027;-67
2022/07/07 09:16:46;;;;;;;2.20;1.42;;;29.60;59.50;;;;;;10971245;32;20481;-69
2022/07/07 09:22:55;;;;;;;2.85;1.27;;;29.60;59.20;;;;;;10945599;32;20336;-68
2022/07/07 09:28:58;;;;;;;2.08;0.95;;;29.70;59.30;;;;;;10933113;32;20027;-69
2022/07/07 09:38:13;;;;;;;1.75;1.20;;;29.90;58.50;;;;;;10932862;32;20053;-69
2022/07/07 09:41:45;;;;;;;2.33;1.77;;;29.90;57.90;;;;;;10942677;32;20019;-69
2022/07/07 09:47:47;;;;;;;1.27;1.10;;;30.20;57.40;;;;;;10945752;32;20041;-68
2022/07/07 09:54:10;;;;;;;2.20;1.50;;;30.20;57.10;;;;;;10927638;32;20061;-69
2022/07/07 10:00:13;;;;;;;3.97;1.12;;;30.20;56.60;;;;;;10945301;32;20057;-69
2022/07/07 10:06:15;;;;;;;1.80;1.27;;;30.30;56.60;;;;;;10928865;32;20056;-68
2022/07/07 10:12:20;;;;;;;1.42;1.10;;;30.50;55.80;;;;;;10945073;32;20011;-68
2022/07/07 10:18:22;;;;;;;1.55;1.15;;;30.70;55.10;;;;;;10942201;32;20029;-69
2022/07/07 10:24:32;;;;;;;1.50;1.30;;;30.60;55.40;;;;;;10944803;32;20027;-76
2022/07/07 10:30:34;;;;;;;0.95;0.80;;;30.70;55.00;;;;;;10944175;32;20027;-75
2022/07/07 10:36:51;;;;;;;1.08;0.90;;;30.80;54.40;;;;;;10944369;32;20026;-75
2022/07/07 10:42:59;;;;;;;2.72;1.30;;;30.90;53.00;;;;;;10930415;32;20050;-73
2022/07/07 10:49:13;;;;;;;1.73;1.37;;;31.20;52.30;;;;;;10943705;32;20023;-75
2022/07/07 10:55:16;;;;;;;1.35;1.02;;;31.50;51.20;;;;;;10943517;32;20023;-74
2022/07/07 11:01:18;;;;;;;1.30;1.15;;;31.70;50.50;;;;;;10943340;32;20038;-75
2022/07/07 11:07:22;;;;;;;3.60;1.95;;;31.80;50.60;;;;;;10943148;32;20061;-75
2022/07/07 11:13:37;;;;;;;1.62;1.12;;;32.00;51.00;;;;;;10929587;32;20014;-75
2022/07/07 11:19:41;;;;;;;2.40;1.42;;;32.10;50.80;;;;;;10944056;32;20358;-74
2022/07/07 11:25:47;;;;;;;2.95;1.27;;;32.40;50.20;;;;;;10942585;32;20010;-76
2022/07/07 11:32:01;;;;;;;2.35;1.48;;;32.70;49.10;;;;;;10490304;32;12088197;-73
2022/07/07 11:38:09;;;;;;;2.62;1.60;;;33.00;48.30;;;;;;10822300;33;20324;-74
2022/07/07 11:44:21;;;;;;;1.50;1.08;;;33.10;47.80;;;;;;10826762;32;20337;-74
2022/07/07 11:50:23;;;;;;;2.00;1.05;;;33.40;46.90;;;;;;10826930;32;20042;-74
2022/07/07 11:56:34;;;;;;;1.83;1.17;;;33.80;46.30;;;;;;10884231;32;20342;-74
2022/07/07 12:02:36;;;;;;;7.57;1.27;;;34.10;44.60;;;;;;10937750;32;20027;-73
2022/07/07 12:08:39;;;;;;;1.90;1.25;;;34.20;43.40;;;;;;10941711;32;20315;-73
2022/07/07 12:14:43;;;;;;;0.88;0.88;;;34.40;42.80;;;;;;10941579;32;20383;-75
2022/07/07 12:20:57;;;;;;;4.22;1.33;;;34.30;42.60;;;;;;10941578;32;20027;-73
2022/07/07 12:26:59;;;;;;;2.17;1.05;;;34.30;42.30;;;;;;10941496;32;20073;-76
2022/07/07 12:33:04;;;;;;;2.92;1.27;;;34.30;41.80;;;;;;11001586;27;20068;-74
2022/07/07 12:39:06;;;;;;;1.95;1.35;;;34.00;41.90;;;;;;11003438;32;20014;-75
2022/07/07 12:45:10;;;;;;;4.55;1.30;;;33.90;42.10;;;;;;11019986;32;20021;-74
2022/07/07 12:51:12;;;;;;;1.90;1.15;;;33.90;42.20;;;;;;11023850;32;20044;-75
2022/07/07 12:57:15;;;;;;;1.60;1.15;;;33.60;42.70;;;;;;11023772;32;20041;-74
2022/07/07 13:03:17;;;;;;;1.40;1.27;;;33.40;43.00;;;;;;11009695;32;20018;-75
2022/07/07 13:09:19;;;;;;;1.27;1.00;;;33.20;43.00;;;;;;11023065;32;20022;-74
2022/07/07 13:15:21;;;;;;;1.73;0.90;;;32.90;43.30;;;;;;11022988;32;20026;-73
2022/07/07 13:21:23;;;;;;;2.60;1.60;;;32.60;43.50;;;;;;11022709;32;20402;-74
2022/07/07 13:27:25;;;;;;;1.17;0.98;;;32.10;44.40;;;;;;11022625;32;20018;-74
2022/07/07 13:33:27;;;;;;;1.75;1.40;;;31.90;45.00;;;;;;11022812;32;20076;-75
2022/07/07 13:39:30;;;;;;;2.05;1.35;;;31.70;45.40;;;;;;11019201;32;20135;-75
2022/07/07 13:45:33;;;;;;;1.20;0.95;;;31.50;45.90;;;;;;11007651;32;20026;-75
2022/07/07 13:51:35;;;;;;;1.30;0.90;;;31.40;46.20;;;;;;11008125;32;20330;-75
2022/07/07 13:57:37;;;;;;;2.03;0.90;;;31.30;46.30;;;;;;11020965;32;20045;-74
2022/07/07 14:03:39;;;;;;;0.90;0.80;;;31.20;46.50;;;;;;11021229;32;20069;-75
2022/07/07 14:09:42;;;;;;;1.58;1.00;;;31.10;46.80;;;;;;11007366;32;20041;-75
2022/07/07 14:15:46;;;;;;;1.45;0.90;;;31.00;47.20;;;;;;11020866;32;20023;-75
2022/07/07 14:21:48;;;;;;;1.05;0.80;;;30.90;47.80;;;;;;11018768;32;20034;-75
2022/07/07 14:27:50;;;;;;;1.20;0.95;;;30.80;48.30;;;;;;11020279;32;20022;-75
2022/07/07 14:33:53;;;;;;;1.55;1.00;;;30.60;49.40;;;;;;11020173;32;20010;-75
2022/07/07 14:39:55;;;;;;;1.35;0.77;;;30.30;52.10;;;;;;11019966;32;20018;-75
2022/07/07 14:45:58;;;;;;;1.05;0.80;;;30.20;52.70;;;;;;10993849;32;20403;-76
2022/07/07 14:52:00;;;;;;;4.07;1.80;;;30.20;53.50;;;;;;10982631;32;20239;-74
2022/07/07 14:58:02;;;;;;;2.55;1.45;;;30.20;54.10;;;;;;11005650;32;20036;-76
2022/07/07 15:04:05;;;;;;;5.07;1.40;;;30.30;55.40;;;;;;11018919;32;20018;-75
2022/07/07 15:10:07;;;;;;;1.50;1.00;;;30.70;55.30;;;;;;11018746;32;20338;-76
2022/07/07 15:16:09;;;;;;;2.30;1.50;;;31.00;54.20;;;;;;11018656;32;20054;-75
2022/07/07 15:22:11;;;;;;;2.08;1.30;;;31.10;53.80;;;;;;11018504;32;20055;-75
2022/07/07 15:28:14;;;;;;;2.85;1.02;;;31.10;53.40;;;;;;11018313;32;20319;-75
2022/07/07 15:34:17;;;;;;;1.15;1.02;;;31.00;53.30;;;;;;11018106;32;20014;-75
2022/07/07 15:40:19;;;;;;;1.08;0.98;;;30.80;53.30;;;;;;11018727;32;20398;-75
2022/07/07 15:46:21;;;;;;;1.92;0.90;;;30.70;53.40;;;;;;11017950;32;20015;-76
2022/07/07 15:52:23;;;;;;;1.67;0.98;;;30.60;53.30;;;;;;11017822;32;20045;-76
2022/07/07 15:58:25;;;;;;;4.35;1.92;;;30.40;53.60;;;;;;11017629;32;20015;-75
2022/07/07 16:04:39;;;;;;;1.48;1.12;;;30.30;54.00;;;;;;11017596;32;20045;-76
2022/07/07 16:10:48;;;;;;;6.22;1.92;;;30.20;54.10;;;;;;11015159;32;20270;-75
2022/07/07 16:16:50;;;;;;;3.83;1.73;;;30.10;54.70;;;;;;11017400;32;20022;-75
2022/07/07 16:22:53;;;;;;;10.35;3.10;;;29.90;55.90;;;;;;11023941;32;20065;-68
2022/07/07 16:28:55;;;;;;;4.85;2.20;;;29.70;56.60;;;;;;11024454;32;20037;-68
2022/07/07 16:34:58;;;;;;;9.13;2.05;;;29.20;57.50;;;;;;11020450;32;20394;-68
2022/07/07 16:41:00;;;;;;;2.90;1.65;;;28.70;60.20;;;;;;11023722;32;20100;-68
2022/07/07 16:47:02;;;;;;;2.22;1.50;;;28.40;60.20;;;;;;11023606;32;20010;-68
2022/07/07 16:53:04;;;;;;;1.50;1.10;;;28.30;60.10;;;;;;11020127;32;20022;-67
2022/07/07 16:59:06;;;;;;;3.72;2.53;;;28.20;60.20;;;;;;11009849;32;20362;-67
2022/07/07 17:05:08;;;;;;;7.50;2.42;;;28.10;60.50;;;;;;11023098;32;20030;-68
2022/07/07 17:11:10;;;;;;;3.33;2.10;;;28.00;60.40;;;;;;11009427;32;20010;-70
2022/07/07 17:17:12;;;;;;;2.78;2.00;;;27.80;61.00;;;;;;11021194;32;20066;-71
2022/07/07 17:23:14;;;;;;;5.07;3.03;;;27.60;61.20;;;;;;10984370;32;20343;-71
2022/07/07 17:29:18;;;;;;;3.53;2.33;;;27.60;62.50;;;;;;10983457;32;20026;-72
2022/07/07 17:35:23;;;;;;;6.53;3.83;;;27.70;62.20;;;;;;10984025;32;20014;-74
2022/07/07 17:41:33;;;;;;;3.95;1.95;;;27.80;62.80;;;;;;10983733;32;20027;-73
2022/07/07 17:47:35;;;;;;;2.67;1.73;;;27.60;63.60;;;;;;10983695;32;20030;-73
2022/07/07 17:53:37;;;;;;;3.67;1.85;;;27.50;63.50;;;;;;10995362;32;20030;-73
2022/07/07 17:59:40;;;;;;;2.75;2.05;;;27.40;63.50;;;;;;11021468;32;20058;-73
2022/07/07 18:05:42;;;;;;;2.47;1.70;;;27.30;63.50;;;;;;11016818;32;20374;-72
2022/07/07 18:11:44;;;;;;;3.33;1.25;;;27.30;63.30;;;;;;11021591;32;20022;-73
2022/07/07 18:17:46;;;;;;;2.17;1.33;;;27.00;64.00;;;;;;11020696;32;20014;-73
2022/07/07 18:23:48;;;;;;;9.70;1.75;;;26.80;63.80;;;;;;11020502;32;20048;-73
2022/07/07 18:29:51;;;;;;;4.82;1.33;;;26.80;63.70;;;;;;11020256;32;20062;-73
2022/07/07 18:35:53;;;;;;;0.70;0.70;;;26.80;63.50;;;;;;11020095;32;20053;-73
2022/07/07 18:41:57;;;;;;;0.65;0.60;;;26.90;63.20;;;;;;11019609;32;20052;-73
2022/07/07 18:47:59;;;;;;;0.88;0.77;;;27.00;62.80;;;;;;11019441;32;20100;-73
2022/07/07 18:54:08;;;;;;;0.60;0.60;;;27.00;62.80;;;;;;11019179;32;20030;-73
2022/07/07 19:00:11;;;;;;;1.50;0.50;;;26.80;63.00;;;;;;11019010;32;20434;-73
2022/07/07 19:06:13;;;;;;;0.90;0.70;;;26.80;63.10;;;;;;11018815;32;20052;-73
2022/07/07 19:12:15;;;;;;;1.40;0.60;;;26.70;63.30;;;;;;11018834;32;20326;-74
2022/07/07 19:18:17;;;;;;;0.30;0.30;;;26.70;63.50;;;;;;11018480;32;20049;-73
2022/07/07 19:24:20;;;;;;;0.75;0.75;;;26.70;63.40;;;;;;11004745;32;20026;-73
2022/07/07 19:30:22;;;;;;;0.90;0.43;;;26.80;63.40;;;;;;11018126;32;20390;-74
2022/07/07 19:36:26;;;;;;;0.50;0.50;;;26.80;63.80;;;;;;11017905;32;20057;-73
2022/07/07 19:42:29;;;;;;;0.68;0.50;;;26.80;63.70;;;;;;10978566;32;20034;-74
2022/07/07 19:48:33;;;;;;;1.10;0.85;;;26.80;63.70;;;;;;11011231;32;20034;-73
2022/07/07 19:54:47;;;;;;;0.73;0.55;;;26.60;63.80;;;;;;11004358;32;20104;-74
2022/07/07 20:00:50;;;;;;;1.35;0.68;;;26.50;63.80;;;;;;10977988;32;20308;-73
2022/07/07 20:06:56;;;;;;;2.00;0.40;;;26.50;63.80;;;;;;10986098;32;20460;-74
2022/07/07 20:12:58;;;;;;;1.25;0.70;;;26.30;64.00;;;;;;10995273;32;20042;-74
2022/07/07 20:19:02;;;;;;;0.88;0.55;;;26.30;64.00;;;;;;10978557;32;20053;-74
2022/07/07 20:25:05;;;;;;;1.48;0.62;;;26.30;64.10;;;;;;10978485;32;20536;-74
2022/07/07 20:31:08;;;;;;;4.40;0.98;;;26.30;64.00;;;;;;10980828;27;20038;-73
2022/07/07 20:37:10;;;;;;;0.70;0.50;;;26.20;64.10;;;;;;10978749;32;20512;-75
2022/07/07 20:43:12;;;;;;;0.60;0.55;;;26.10;64.30;;;;;;10978550;32;20027;-74
2022/07/07 20:49:15;;;;;;;1.08;0.70;;;25.90;64.40;;;;;;10978416;32;20045;-74
2022/07/07 20:55:17;;;;;;;1.45;0.75;;;25.90;64.30;;;;;;10957807;32;20031;-74
2022/07/07 21:01:20;;;;;;;1.85;0.77;;;25.90;64.30;;;;;;10940643;32;20035;-74
2022/07/07 21:07:23;;;;;;;0.73;0.70;;;25.80;64.40;;;;;;10945068;32;20018;-74
2022/07/07 21:13:26;;;;;;;2.92;0.60;;;25.80;64.40;;;;;;10933824;32;20023;-74
2022/07/07 21:19:28;;;;;;;3.67;1.08;;;25.70;64.40;;;;;;10947203;32;20084;-74
2022/07/07 21:25:30;;;;;;;1.52;0.77;;;25.70;64.40;;;;;;10948008;32;20552;-74
2022/07/07 21:31:32;;;;;;;0.57;0.55;;;25.70;65.00;;;;;;10946527;32;20026;-74
2022/07/07 21:37:35;;;;;;;1.05;0.70;;;25.70;64.90;;;;;;10946533;32;20061;-74
2022/07/07 21:44:08;;;;;;;0.98;0.60;;;25.60;64.90;;;;;;10932814;32;20054;-74
2022/07/07 21:50:10;;;;;;;0.55;0.52;;;25.50;65.00;;;;;;10933131;32;20046;-74
2022/07/07 21:56:12;;;;;;;0.47;0.47;;;25.30;65.20;;;;;;10945861;32;20053;-75
2022/07/07 22:02:14;;;;;;;1.02;0.60;;;25.40;65.00;;;;;;10945626;32;20015;-74
2022/07/07 22:08:16;;;;;;;0.80;0.50;;;25.30;65.20;;;;;;10945322;32;20023;-74
2022/07/07 22:14:19;;;;;;;0.75;0.68;;;25.40;65.10;;;;;;10945200;32;20042;-74
2022/07/07 22:20:21;;;;;;;0.93;0.60;;;25.40;65.20;;;;;;10944385;32;20054;-75
2022/07/07 22:26:23;;;;;;;0.50;0.50;;;25.30;65.40;;;;;;10944619;32;20023;-74
2022/07/07 22:32:25;;;;;;;0.60;0.40;;;25.10;65.60;;;;;;10944441;32;20034;-74
2022/07/07 22:38:27;;;;;;;0.95;0.73;;;25.10;65.70;;;;;;10944102;32;20027;-74
2022/07/07 22:44:46;;;;;;;0.52;0.52;;;25.10;65.60;;;;;;10943940;32;20054;-74
2022/07/07 22:50:49;;;;;;;1.08;0.80;;;25.10;65.50;;;;;;10943898;32;20041;-74
2022/07/07 22:56:51;;;;;;;0.55;0.40;;;24.90;65.70;;;;;;10943610;32;20176;-74
2022/07/07 23:02:53;;;;;;;2.45;0.82;;;24.80;65.90;;;;;;10943310;32;20042;-74
2022/07/07 23:08:55;;;;;;;0.98;0.77;;;24.70;66.00;;;;;;10943259;32;20031;-74
2022/07/07 23:14:57;;;;;;;1.10;0.50;;;24.60;66.20;;;;;;10943193;32;20019;-75
2022/07/07 23:20:59;;;;;;;0.52;0.47;;;24.40;66.30;;;;;;10929418;32;20383;-74
2022/07/07 23:27:00;;;;;;;0.98;0.85;;;24.20;66.70;;;;;;10942337;32;20034;-74
2022/07/07 23:33:03;;;;;;;1.17;0.80;;;24.30;66.40;;;;;;10942008;32;20022;-74
2022/07/07 23:39:05;;;;;;;0.85;0.57;;;24.50;66.00;;;;;;10942275;32;20019;-73
2022/07/07 23:45:07;;;;;;;0.88;0.82;;;24.60;65.70;;;;;;10928708;32;20422;-74
2022/07/07 23:51:09;;;;;;;0.88;0.65;;;24.50;65.70;;;;;;10942055;32;20384;-73
2022/07/07 23:57:12;;;;;;;1.08;0.70;;;24.30;66.10;;;;;;10942031;32;20387;-73
